Aérodrome :







RETROUVEZ-NOUS SUR...

 
LOGIN :

S'inscrire | Disclaimer

   EN    FR    IT 

 









Légende :    VFR   VFR Marginal   IFR   IFR Intensif   IFR Très Intensif
Visi : 
Plafond : 
>= 8 km
>= 3000ft
5 à 8 km
1000 à 3000 ft
1500m à 5 km
500 à 1000 ft
800 à 1500m
200 à 500 ft
< 800m
< 200 ft
Symboles :   Orages  Brouillard  Fortes neiges  Fortes précipitations  Vent > 20 kt






- Altitude de l'aérodrome : 98 ft
- Code IATA : JBQ


MDJB - El Higuero

DERNIER METAR :
  • 041800Z 20008KT 9999 SCT020 34/23 Q1011 NOSIG

METARs EXPIRÉS :
  • 041700Z 00000KT 9999 BKN020 31/23 Q1012 NOSIG
  • 041600Z 12006KT 9999 SCT020 32/23 Q1013 NOSIG

TAF TAF MDJB
Valide du 04 à 18h jusqu'au 05 à 18h UTC


041600Z 0418/0518 18010KT 9999 SCT020
PROB30
TEMPO 0420/0501 6000 ?TSRA FEW016CB BKN018
BECMG 0422/0500 00000KT



MET'MAP, la Météo Aéronautique d'un coup d'oeil ! - Copyright ORBIFLY Décembre 2007 - Disclaimer

ORBIFLY MET'MAP TEAM :

Programmation & Développement : Alexandra Zaïnal
Sur une idée originale de : Baudouin d'Aumeries
Assistance à la programmation : Marc-Olivier Méhu
Soutien technique & logistique : Manuel Goepfert

Contact : metmap@orbifly.com




SOURCES & CREDITS :

   NOAA